Time;durP1;ratioP1;P1;durP2;ratioP2;P2;SDS_P1;SDS_P2;PMS_P1;PMS_P2;Temp;Humidity;BMP_temperature;BMP_pressure;BME280_temperature;BME280_humidity;BME280_pressure;Samples;Min_cycle;Max_cycle;Signal;HPM_P1;HPM_P2
2022/02/11 00:00:54;;;;;;;12.43;6.28;;;7.40;99.90;;;;;;5066502;28;20413;-57
2022/02/11 00:08:37;;;;;;;17.27;7.25;;;7.40;99.90;;;;;;5066083;28;20395;-57
2022/02/11 00:11:02;;;;;;;13.70;6.53;;;7.40;99.90;;;;;;5071659;28;20746;-57
2022/02/11 00:13:28;;;;;;;14.45;6.40;;;7.30;99.90;;;;;;5048539;28;20914;-58
2022/02/11 00:15:55;;;;;;;12.20;5.90;;;7.30;99.90;;;;;;5066369;28;20383;-57
2022/02/11 00:18:21;;;;;;;13.75;5.65;;;7.30;99.90;;;;;;5070430;28;20468;-57
2022/02/11 00:20:51;;;;;;;10.70;5.25;;;7.30;99.90;;;;;;5070008;28;20416;-57
2022/02/11 00:23:18;;;;;;;13.52;5.88;;;7.20;99.90;;;;;;5064975;28;20449;-57
2022/02/11 00:25:53;;;;;;;12.50;5.90;;;7.20;99.90;;;;;;5063881;28;20500;-57
2022/02/11 00:31:51;;;;;;;11.73;5.38;;;7.10;99.90;;;;;;5023551;28;20380;-57
2022/02/11 00:34:21;;;;;;;12.23;5.70;;;7.10;99.90;;;;;;5068759;28;20394;-58
2022/02/11 00:36:59;;;;;;;13.15;5.57;;;7.00;99.90;;;;;;5065070;28;20480;-58
2022/02/11 01:05:50;;;;;;;13.67;6.40;;;6.80;99.90;;;;;;5081755;28;20381;-58
2022/02/11 01:08:15;;;;;;;14.50;7.00;;;6.70;99.90;;;;;;5056232;28;20415;-58
2022/02/11 01:10:41;;;;;;;12.57;5.50;;;6.70;99.90;;;;;;5084177;28;20383;-58
2022/02/11 01:13:07;;;;;;;11.03;5.87;;;6.60;99.90;;;;;;5080552;28;20390;-58
2022/02/11 01:15:35;;;;;;;13.05;6.68;;;6.60;99.90;;;;;;5072413;28;20386;-59
2022/02/11 01:18:04;;;;;;;12.02;5.78;;;6.50;99.90;;;;;;5073916;28;20414;-58
2022/02/11 01:26:11;;;;;;;11.47;5.13;;;6.50;99.90;;;;;;5075418;28;20467;-59
2022/02/11 01:52:25;;;;;;;9.52;4.30;;;6.50;99.90;;;;;;5072413;28;20383;-57
2022/02/11 01:58:11;;;;;;;12.38;4.88;;;6.40;99.90;;;;;;5080674;28;20382;-57
2022/02/11 02:06:14;;;;;;;9.85;4.40;;;6.10;99.90;;;;;;5068317;28;20406;-57
2022/02/11 02:38:20;;;;;;;13.05;5.70;;;5.90;99.90;;;;;;5064414;28;20389;-57
2022/02/11 02:57:09;;;;;;;14.77;6.18;;;5.50;99.90;;;;;;5081121;28;20390;-59
2022/02/11 03:56:37;;;;;;;5.55;2.38;;;3.80;99.90;;;;;;5090704;28;20390;-59
2022/02/11 04:56:47;;;;;;;11.25;5.78;;;3.00;99.90;;;;;;5070547;28;20375;-57
2022/02/11 05:01:57;;;;;;;11.40;5.18;;;3.10;99.90;;;;;;5064040;28;20398;-58
2022/02/11 05:04:23;;;;;;;10.27;5.30;;;3.10;99.90;;;;;;5063569;28;20396;-58
2022/02/11 05:06:48;;;;;;;10.43;5.23;;;3.10;99.90;;;;;;5069233;28;20445;-58
2022/02/11 05:09:14;;;;;;;11.88;6.05;;;3.10;99.90;;;;;;5069667;28;20888;-58
2022/02/11 05:11:41;;;;;;;9.48;5.03;;;3.20;99.90;;;;;;5038501;28;20498;-58
2022/02/11 05:14:07;;;;;;;10.33;6.00;;;3.20;99.90;;;;;;5052691;28;20436;-58
2022/02/11 05:16:33;;;;;;;11.02;5.68;;;3.20;99.90;;;;;;5069913;28;20463;-58
2022/02/11 05:18:59;;;;;;;10.50;5.60;;;3.30;99.90;;;;;;5067351;28;20411;-58
2022/02/11 05:21:26;;;;;;;9.45;4.78;;;3.70;99.90;;;;;;5055749;28;20403;-58
2022/02/11 05:23:52;;;;;;;8.65;4.32;;;3.20;99.90;;;;;;5032413;28;20505;-58
2022/02/11 05:26:19;;;;;;;8.85;4.40;;;4.30;99.90;;;;;;5055974;28;20377;-58
2022/02/11 05:28:44;;;;;;;8.18;3.80;;;3.80;99.90;;;;;;5048525;28;20871;-58
2022/02/11 05:31:10;;;;;;;9.15;4.22;;;4.90;99.90;;;;;;5034150;28;20634;-58
2022/02/11 05:33:36;;;;;;;9.52;4.53;;;3.40;99.90;;;;;;5048761;28;20382;-58
2022/02/11 05:36:02;;;;;;;8.25;4.50;;;3.50;99.90;;;;;;5049276;28;20373;-58
2022/02/11 05:38:28;;;;;;;8.20;3.90;;;3.50;99.90;;;;;;5052485;28;20411;-59
2022/02/11 05:40:54;;;;;;;9.73;4.60;;;5.20;99.90;;;;;;5048910;28;20417;-58
2022/02/11 05:43:19;;;;;;;9.20;4.70;;;3.50;99.90;;;;;;5049360;28;20385;-58
2022/02/11 05:45:45;;;;;;;8.77;3.90;;;3.40;99.90;;;;;;5048313;28;20382;-57
2022/02/11 05:48:11;;;;;;;8.02;3.50;;;3.40;99.90;;;;;;5049302;28;20432;-57
2022/02/11 05:50:37;;;;;;;9.33;4.10;;;1.70;99.90;;;;;;5048285;28;20882;-57
2022/02/11 05:53:07;;;;;;;9.43;4.50;;;5.00;99.90;;;;;;5036438;28;20761;-58
2022/02/11 05:55:34;;;;;;;9.90;4.50;;;3.40;99.90;;;;;;5050040;28;20417;-58
2022/02/11 05:58:00;;;;;;;10.10;4.97;;;3.40;99.90;;;;;;5050730;28;20390;-58
2022/02/11 06:00:26;;;;;;;10.05;4.80;;;3.40;99.90;;;;;;5050806;28;20448;-57
2022/02/11 06:02:52;;;;;;;10.80;4.77;;;3.40;99.90;;;;;;5047917;28;20385;-58
2022/02/11 06:05:19;;;;;;;9.53;4.70;;;3.50;99.90;;;;;;5049103;28;20397;-57
2022/02/11 06:07:45;;;;;;;10.50;4.95;;;3.40;99.90;;;;;;5048504;28;20484;-58
2022/02/11 06:10:12;;;;;;;10.07;5.07;;;3.50;99.90;;;;;;5058430;28;20479;-57
2022/02/11 06:12:37;;;;;;;8.80;4.50;;;3.50;99.90;;;;;;5048448;28;20393;-58
2022/02/11 06:15:03;;;;;;;10.27;5.03;;;3.40;99.90;;;;;;5049665;28;20377;-58
2022/02/11 06:17:29;;;;;;;11.52;5.90;;;3.40;99.90;;;;;;5054032;28;20494;-59
2022/02/11 06:20:00;;;;;;;11.95;5.20;;;4.10;99.90;;;;;;5067729;28;20454;-58
2022/02/11 06:22:28;;;;;;;12.07;5.45;;;3.50;99.90;;;;;;5065079;28;20514;-59
2022/02/11 06:24:54;;;;;;;9.98;4.80;;;3.50;99.90;;;;;;5069421;28;20818;-58
2022/02/11 06:27:20;;;;;;;9.82;4.80;;;4.30;99.90;;;;;;5069630;28;20368;-60
2022/02/11 06:29:46;;;;;;;12.70;5.10;;;3.40;99.90;;;;;;5048153;28;20445;-59
2022/02/11 06:32:11;;;;;;;11.00;4.90;;;3.40;99.90;;;;;;5069418;28;20375;-58
2022/02/11 06:34:37;;;;;;;11.67;5.47;;;3.30;99.90;;;;;;5065514;28;20822;-59
2022/02/11 06:37:04;;;;;;;10.13;5.10;;;3.30;99.90;;;;;;5066872;28;20376;-59
2022/02/11 06:39:30;;;;;;;10.88;5.25;;;3.20;99.90;;;;;;5068630;28;20608;-59
2022/02/11 06:41:56;;;;;;;11.38;5.00;;;3.20;99.90;;;;;;5068070;28;20446;-59
2022/02/11 06:44:21;;;;;;;10.97;5.07;;;3.20;99.90;;;;;;5069168;28;20398;-63
2022/02/11 06:46:48;;;;;;;11.75;5.53;;;3.70;99.90;;;;;;5058250;28;20900;-58
2022/02/11 06:49:14;;;;;;;11.55;5.55;;;4.30;99.90;;;;;;5069144;28;20738;-58
2022/02/11 06:51:39;;;;;;;13.93;5.60;;;3.20;99.90;;;;;;5048733;28;20381;-58
2022/02/11 06:54:05;;;;;;;13.63;5.35;;;3.10;99.90;;;;;;5055536;28;20490;-58
2022/02/11 06:56:31;;;;;;;11.60;5.60;;;3.10;99.90;;;;;;5051319;28;20392;-59
2022/02/11 06:58:56;;;;;;;11.23;5.67;;;3.10;99.90;;;;;;5068644;28;20741;-58
2022/02/11 07:01:23;;;;;;;12.80;5.78;;;3.10;99.90;;;;;;5069415;28;20490;-58
2022/02/11 07:03:49;;;;;;;13.05;5.68;;;3.10;99.90;;;;;;5065338;28;20879;-58
2022/02/11 07:06:15;;;;;;;10.38;5.55;;;4.00;99.90;;;;;;5064730;28;20399;-58
2022/02/11 07:08:41;;;;;;;11.43;5.95;;;3.40;99.90;;;;;;5068808;28;20407;-58
2022/02/11 07:11:06;;;;;;;13.03;5.93;;;4.70;99.90;;;;;;5064704;28;20400;-58
2022/02/11 07:13:32;;;;;;;15.65;6.35;;;3.10;99.90;;;;;;5060321;28;20459;-59
2022/02/11 07:15:58;;;;;;;12.10;6.10;;;4.40;99.90;;;;;;5061827;28;20440;-58
2022/02/11 07:18:23;;;;;;;13.07;6.33;;;3.10;99.90;;;;;;5052835;28;20413;-58
2022/02/11 07:20:49;;;;;;;14.40;5.70;;;3.10;99.90;;;;;;5051953;28;20933;-58
2022/02/11 07:23:16;;;;;;;10.77;6.03;;;3.10;99.90;;;;;;5066650;28;20725;-58
2022/02/11 07:25:43;;;;;;;12.52;6.07;;;3.30;99.90;;;;;;5070561;28;20725;-58
2022/02/11 07:28:09;;;;;;;12.27;5.90;;;3.70;99.90;;;;;;5072909;28;20380;-58
2022/02/11 07:30:35;;;;;;;12.70;6.30;;;3.20;99.90;;;;;;5054440;28;20394;-60
2022/02/11 07:33:01;;;;;;;10.27;5.22;;;3.10;99.90;;;;;;5072557;28;20471;-58
2022/02/11 07:35:28;;;;;;;11.90;5.80;;;3.10;99.90;;;;;;5054378;28;20814;-58
2022/02/11 07:37:53;;;;;;;9.88;5.30;;;3.20;99.90;;;;;;5064698;28;20713;-58
2022/02/11 07:40:20;;;;;;;9.68;4.57;;;3.40;99.90;;;;;;5072206;28;20430;-58
2022/02/11 07:42:47;;;;;;;9.00;4.40;;;4.10;99.90;;;;;;5053942;28;20770;-59
2022/02/11 07:45:14;;;;;;;8.02;4.20;;;5.00;99.90;;;;;;5066774;28;20869;-57
2022/02/11 07:47:40;;;;;;;8.75;4.07;;;5.80;99.90;;;;;;5058160;28;20435;-57
2022/02/11 07:50:07;;;;;;;9.60;3.40;;;6.30;99.90;;;;;;5055173;28;20384;-57
2022/02/11 07:52:33;;;;;;;8.23;3.38;;;6.50;99.90;;;;;;5071614;28;20382;-58
2022/02/11 07:54:59;;;;;;;6.50;2.80;;;7.60;99.90;;;;;;5071570;28;20796;-57
2022/02/11 07:57:25;;;;;;;7.43;3.50;;;6.60;99.90;;;;;;5071912;28;20460;-57
2022/02/11 07:59:52;;;;;;;7.60;3.50;;;6.90;99.90;;;;;;5069932;28;20908;-57
2022/02/11 08:02:18;;;;;;;9.18;3.55;;;7.60;99.90;;;;;;5071920;28;20398;-56
2022/02/11 08:04:43;;;;;;;6.60;2.90;;;7.10;99.90;;;;;;5070042;28;21202;-56
2022/02/11 08:07:09;;;;;;;8.03;2.60;;;7.40;99.90;;;;;;5071410;28;20392;-56
2022/02/11 08:09:35;;;;;;;7.40;3.00;;;6.80;99.90;;;;;;5071207;28;20383;-58
2022/02/11 08:12:01;;;;;;;7.93;3.03;;;6.80;99.90;;;;;;5053928;28;20388;-56
2022/02/11 08:14:30;;;;;;;7.63;2.97;;;6.60;99.90;;;;;;5057931;28;20425;-56
2022/02/11 08:16:56;;;;;;;8.23;3.00;;;6.60;99.90;;;;;;5058095;28;20407;-56
2022/02/11 08:19:22;;;;;;;7.60;2.80;;;6.80;99.90;;;;;;5052982;28;20421;-56
2022/02/11 08:21:49;;;;;;;9.05;3.40;;;7.80;99.90;;;;;;5051077;28;20374;-56
2022/02/11 08:24:15;;;;;;;7.95;3.10;;;6.30;99.90;;;;;;5050800;28;20377;-57
2022/02/11 08:26:44;;;;;;;6.53;2.63;;;7.90;99.90;;;;;;5051283;28;20415;-57
2022/02/11 08:29:13;;;;;;;8.05;3.20;;;6.70;99.90;;;;;;5060904;28;20417;-57
2022/02/11 08:31:39;;;;;;;8.00;3.58;;;6.90;99.90;;;;;;5061971;28;20403;-57
2022/02/11 08:34:05;;;;;;;7.70;3.57;;;6.90;99.90;;;;;;5059922;28;20382;-57
2022/02/11 08:36:31;;;;;;;8.40;3.43;;;7.30;99.90;;;;;;5051021;28;20755;-57
2022/02/11 08:38:57;;;;;;;6.38;3.00;;;7.80;99.90;;;;;;5050710;28;20384;-57
2022/02/11 08:41:23;;;;;;;7.25;3.13;;;8.50;99.90;;;;;;5051642;28;20382;-57
2022/02/11 08:43:49;;;;;;;7.40;3.30;;;8.40;99.90;;;;;;5060773;28;20388;-57
2022/02/11 08:46:15;;;;;;;8.82;3.22;;;8.30;99.90;;;;;;5041855;28;20737;-57
2022/02/11 08:48:41;;;;;;;7.82;3.58;;;8.30;99.90;;;;;;5070509;28;20383;-57
2022/02/11 08:51:07;;;;;;;8.97;3.20;;;8.20;99.90;;;;;;5070978;28;20392;-57
2022/02/11 08:53:34;;;;;;;8.07;2.60;;;7.70;99.90;;;;;;5070523;28;20398;-59
2022/02/11 08:56:03;;;;;;;6.97;3.03;;;7.80;99.90;;;;;;5071097;28;20399;-57
2022/02/11 08:58:28;;;;;;;9.05;3.40;;;7.90;99.90;;;;;;5070885;28;20939;-58
2022/02/11 09:00:54;;;;;;;6.97;3.00;;;8.70;99.90;;;;;;5069972;28;20415;-58
2022/02/11 09:03:20;;;;;;;8.60;2.70;;;8.90;99.90;;;;;;5070944;28;20425;-58
2022/02/11 09:05:45;;;;;;;8.70;3.20;;;8.80;99.90;;;;;;5069837;28;20900;-57
2022/02/11 09:08:12;;;;;;;8.60;2.78;;;8.50;99.90;;;;;;5070438;28;20388;-57
2022/02/11 09:10:38;;;;;;;9.70;3.17;;;8.00;99.90;;;;;;5070171;28;20384;-59
2022/02/11 09:13:04;;;;;;;8.15;2.78;;;7.70;99.90;;;;;;5063351;28;20819;-57
2022/02/11 09:15:30;;;;;;;8.47;2.90;;;7.70;99.90;;;;;;5052712;28;20387;-57
2022/02/11 09:17:57;;;;;;;9.02;3.05;;;8.10;99.90;;;;;;5067079;28;20832;-58
2022/02/11 09:20:25;;;;;;;8.35;2.85;;;8.50;99.90;;;;;;5050593;28;20421;-58
2022/02/11 09:22:51;;;;;;;8.82;3.33;;;9.30;99.90;;;;;;5064618;28;20410;-58
2022/02/11 09:25:17;;;;;;;10.50;3.20;;;9.80;99.90;;;;;;5070050;28;20419;-58
2022/02/11 09:27:43;;;;;;;9.45;3.40;;;9.80;99.90;;;;;;5069322;28;20490;-58
2022/02/11 09:30:16;;;;;;;11.10;3.40;;;9.30;99.90;;;;;;5070493;28;20475;-58
2022/02/11 09:32:44;;;;;;;7.97;2.60;;;10.10;99.90;;;;;;5054153;28;20389;-58
2022/02/11 09:35:10;;;;;;;8.65;2.92;;;9.80;99.90;;;;;;5060023;28;20393;-58
2022/02/11 09:37:37;;;;;;;9.20;2.80;;;9.70;99.90;;;;;;5063624;28;20400;-60
2022/02/11 09:40:06;;;;;;;7.20;2.70;;;10.10;99.90;;;;;;5064922;28;20417;-58
2022/02/11 09:42:32;;;;;;;8.40;2.95;;;9.80;99.90;;;;;;5064667;28;20404;-58
2022/02/11 09:44:58;;;;;;;8.00;1.98;;;10.20;99.90;;;;;;5058259;28;20391;-59
2022/02/11 09:47:24;;;;;;;7.70;2.10;;;10.00;99.90;;;;;;5063515;28;20407;-59
2022/02/11 09:49:50;;;;;;;7.88;2.80;;;10.50;99.90;;;;;;5068732;28;20380;-59
2022/02/11 09:52:18;;;;;;;7.70;2.20;;;9.90;99.90;;;;;;5069646;28;20855;-59
2022/02/11 09:54:44;;;;;;;9.50;2.50;;;10.40;99.90;;;;;;5068316;28;20384;-59
2022/02/11 09:57:10;;;;;;;7.05;2.45;;;10.60;99.90;;;;;;5061422;28;20527;-59
2022/02/11 09:59:37;;;;;;;8.48;2.90;;;10.90;99.90;;;;;;5072535;28;20408;-60
2022/02/11 10:02:03;;;;;;;11.23;2.20;;;10.40;99.90;;;;;;5067035;28;20845;-59
2022/02/11 10:04:29;;;;;;;7.50;2.33;;;10.40;99.90;;;;;;5069755;28;20884;-59
2022/02/11 10:06:58;;;;;;;8.57;2.55;;;10.30;99.90;;;;;;5054154;28;20376;-59
2022/02/11 10:09:23;;;;;;;7.87;2.60;;;10.50;99.90;;;;;;5068784;28;20424;-60
2022/02/11 10:11:50;;;;;;;7.43;2.30;;;10.80;99.90;;;;;;5072541;28;20872;-59
2022/02/11 10:14:24;;;;;;;8.15;2.30;;;10.40;99.90;;;;;;5069660;28;22153;-59
2022/02/11 10:17:09;;;;;;;7.00;2.55;;;9.50;99.90;;;;;;5070716;28;20409;-59
2022/02/11 10:19:46;;;;;;;8.90;2.50;;;10.00;99.90;;;;;;5068398;28;20447;-61
2022/02/11 10:22:32;;;;;;;10.13;2.60;;;10.00;99.90;;;;;;5069091;28;20422;-59
2022/02/11 10:24:58;;;;;;;8.10;2.80;;;9.60;99.90;;;;;;5067149;28;20473;-59
2022/02/11 10:27:42;;;;;;;8.50;3.30;;;10.00;99.90;;;;;;5068945;28;20380;-59
2022/02/11 10:30:11;;;;;;;7.70;2.60;;;9.90;99.90;;;;;;5051702;28;20391;-59
2022/02/11 10:32:48;;;;;;;9.77;3.13;;;9.90;99.90;;;;;;5068974;28;20770;-60
2022/02/11 10:35:24;;;;;;;7.15;2.90;;;10.30;99.90;;;;;;5069431;28;20872;-59
2022/02/11 10:38:09;;;;;;;7.05;2.70;;;10.40;99.90;;;;;;5068289;28;20372;-60
2022/02/11 10:40:38;;;;;;;9.27;3.30;;;10.70;99.90;;;;;;5068864;28;20412;-61
2022/02/11 10:43:16;;;;;;;10.18;3.15;;;11.00;99.90;;;;;;5069261;28;20380;-60
2022/02/11 10:45:42;;;;;;;8.20;3.03;;;10.40;99.90;;;;;;5069029;28;20451;-60
2022/02/11 10:48:15;;;;;;;9.90;3.07;;;10.50;99.90;;;;;;5071977;28;20827;-60
2022/02/11 10:50:46;;;;;;;8.80;2.70;;;11.00;99.90;;;;;;5087643;28;20573;-60
2022/02/11 10:53:28;;;;;;;7.78;3.25;;;11.00;99.90;;;;;;5061839;28;20406;-60
2022/02/11 10:55:55;;;;;;;8.80;3.00;;;10.70;99.90;;;;;;5060634;28;20608;-60
2022/02/11 10:58:22;;;;;;;8.67;2.90;;;10.20;99.90;;;;;;5070579;28;20392;-60
2022/02/11 11:00:48;;;;;;;7.90;3.30;;;10.60;99.90;;;;;;5072349;28;20407;-61
2022/02/11 11:03:14;;;;;;;9.55;2.83;;;10.60;99.90;;;;;;5072685;28;20873;-61
2022/02/11 11:05:44;;;;;;;8.63;3.30;;;11.40;99.90;;;;;;5067906;28;20422;-59
2022/02/11 11:08:11;;;;;;;7.40;3.10;;;11.20;99.90;;;;;;5069544;28;20765;-59
2022/02/11 11:10:43;;;;;;;9.45;2.97;;;11.90;99.90;;;;;;5069909;28;20423;-62
2022/02/11 11:13:11;;;;;;;9.73;2.75;;;10.80;99.90;;;;;;5069946;28;20402;-61
2022/02/11 11:15:37;;;;;;;7.32;2.63;;;10.50;99.90;;;;;;5071416;28;20391;-60
2022/02/11 11:18:07;;;;;;;7.32;2.35;;;9.70;99.90;;;;;;5067194;28;20420;-59
2022/02/11 11:20:34;;;;;;;7.20;2.50;;;9.00;99.90;;;;;;5067531;28;20415;-58
2022/02/11 11:23:24;;;;;;;8.10;2.53;;;8.10;99.90;;;;;;5070713;28;20405;-59
2022/02/11 11:26:06;;;;;;;6.70;2.50;;;8.10;99.90;;;;;;5062690;28;20421;-59
2022/02/11 11:28:48;;;;;;;6.93;2.78;;;7.60;99.90;;;;;;5054587;28;20395;-59
2022/02/11 11:31:25;;;;;;;8.32;2.80;;;7.60;99.90;;;;;;5064677;28;20404;-58
2022/02/11 11:34:12;;;;;;;7.72;2.95;;;7.60;99.90;;;;;;5061807;28;20392;-58
2022/02/11 11:36:41;;;;;;;8.60;2.80;;;7.30;99.90;;;;;;5071438;28;20408;-59
2022/02/11 11:39:07;;;;;;;7.45;3.17;;;7.90;99.90;;;;;;5054548;28;20388;-59
2022/02/11 11:41:35;;;;;;;10.93;3.00;;;8.10;99.90;;;;;;5072137;28;20470;-58
2022/02/11 11:44:24;;;;;;;9.63;2.55;;;7.30;99.90;;;;;;5071732;28;20506;-58
2022/02/11 11:46:51;;;;;;;7.90;3.10;;;7.00;99.90;;;;;;5071625;28;20467;-58
2022/02/11 11:49:20;;;;;;;8.93;2.80;;;7.20;99.90;;;;;;5072184;28;20857;-60
2022/02/11 11:51:46;;;;;;;8.07;2.83;;;6.90;99.90;;;;;;5071617;28;20379;-60
2022/02/11 11:54:17;;;;;;;10.23;3.30;;;6.80;99.90;;;;;;5063945;28;20416;-60
2022/02/11 11:56:47;;;;;;;12.48;3.30;;;6.70;99.90;;;;;;5057763;28;20399;-60
2022/02/11 11:59:15;;;;;;;8.85;3.58;;;6.50;99.90;;;;;;5062761;28;20411;-61
2022/02/11 12:02:01;;;;;;;8.48;2.78;;;6.70;99.90;;;;;;5057938;28;20458;-61
2022/02/11 12:04:31;;;;;;;9.18;2.78;;;6.60;99.90;;;;;;5061217;28;20408;-61
2022/02/11 12:07:00;;;;;;;7.65;3.20;;;6.70;99.90;;;;;;5064781;28;20420;-59
2022/02/11 12:09:27;;;;;;;5.68;2.33;;;6.70;99.90;;;;;;5062917;28;20408;-58
2022/02/11 12:12:14;;;;;;;8.02;2.50;;;6.70;99.90;;;;;;5067165;28;20398;-59
2022/02/11 12:14:42;;;;;;;9.15;2.53;;;6.80;99.90;;;;;;5061509;28;20397;-62
2022/02/11 12:17:09;;;;;;;8.13;2.80;;;6.70;99.90;;;;;;5042040;28;20450;-59
2022/02/11 12:19:36;;;;;;;8.20;2.80;;;6.70;99.90;;;;;;5049258;28;20898;-59
2022/02/11 12:22:05;;;;;;;9.48;2.53;;;6.80;99.90;;;;;;5059682;28;20812;-59
2022/02/11 12:27:21;;;;;;;7.00;2.33;;;6.50;99.90;;;;;;5055007;28;20475;-59
2022/02/11 12:30:01;;;;;;;8.18;3.03;;;6.30;99.90;;;;;;5059083;28;20511;-61
2022/02/11 12:32:30;;;;;;;7.75;2.70;;;6.30;99.90;;;;;;5060170;28;20802;-59
2022/02/11 12:34:59;;;;;;;8.97;3.00;;;6.40;99.90;;;;;;5064773;28;20390;-59
2022/02/11 12:37:28;;;;;;;9.20;2.75;;;6.70;99.90;;;;;;5061886;28;20388;-58
2022/02/11 12:40:23;;;;;;;10.02;3.22;;;6.90;99.90;;;;;;5061305;28;20444;-59
2022/02/11 12:42:54;;;;;;;8.55;2.70;;;7.40;99.90;;;;;;5063974;28;20397;-59
2022/02/11 12:45:29;;;;;;;5.93;2.07;;;7.50;99.90;;;;;;5061355;28;20395;-58
2022/02/11 12:47:55;;;;;;;8.93;2.90;;;7.10;99.90;;;;;;5056037;28;20957;-58
2022/02/11 12:50:35;;;;;;;7.72;2.33;;;6.90;99.90;;;;;;5069862;28;20492;-59
2022/02/11 12:53:07;;;;;;;7.03;2.35;;;7.10;99.90;;;;;;5071724;28;20394;-59
2022/02/11 12:55:36;;;;;;;7.97;3.00;;;7.30;99.90;;;;;;5073317;28;20411;-59
2022/02/11 12:58:04;;;;;;;8.75;2.85;;;7.50;99.90;;;;;;5069646;28;20391;-59
2022/02/11 13:00:32;;;;;;;8.70;2.58;;;7.80;99.90;;;;;;5055394;28;20449;-59
2022/02/11 13:03:01;;;;;;;7.60;2.50;;;7.80;99.90;;;;;;5058676;28;20407;-59
2022/02/11 13:05:39;;;;;;;6.72;2.60;;;7.80;99.90;;;;;;5055386;28;20409;-58
2022/02/11 13:08:08;;;;;;;6.10;2.45;;;7.70;99.90;;;;;;5059644;28;20379;-58
2022/02/11 13:10:38;;;;;;;7.97;2.90;;;7.60;99.90;;;;;;5066634;28;20405;-58
2022/02/11 13:13:12;;;;;;;9.45;3.05;;;7.80;99.90;;;;;;5059239;28;20411;-58
2022/02/11 13:15:38;;;;;;;7.95;2.60;;;7.80;99.90;;;;;;5063785;28;20883;-58
2022/02/11 13:18:09;;;;;;;9.55;2.30;;;8.00;99.90;;;;;;5061163;28;20444;-58
2022/02/11 13:20:43;;;;;;;10.50;2.60;;;7.80;99.90;;;;;;5057001;28;20423;-58
2022/02/11 13:23:12;;;;;;;8.27;2.88;;;7.90;99.90;;;;;;5061105;28;20803;-59
2022/02/11 13:25:40;;;;;;;5.80;2.20;;;7.90;99.90;;;;;;5064324;28;20439;-58
2022/02/11 13:28:09;;;;;;;7.60;2.40;;;7.70;99.90;;;;;;5060283;28;20401;-58
2022/02/11 13:30:36;;;;;;;7.50;2.30;;;7.90;99.90;;;;;;5061709;28;20397;-58
2022/02/11 13:33:36;;;;;;;6.67;2.30;;;7.80;99.90;;;;;;5062138;28;20482;-58
2022/02/11 13:36:05;;;;;;;8.23;2.50;;;7.90;99.90;;;;;;5066103;28;20387;-57
2022/02/11 13:38:35;;;;;;;7.90;2.30;;;7.90;99.90;;;;;;5063710;28;20453;-57
2022/02/11 13:41:06;;;;;;;7.20;2.30;;;7.70;99.90;;;;;;5060885;28;20506;-57
2022/02/11 13:43:47;;;;;;;7.47;2.60;;;7.60;99.90;;;;;;5050024;28;20399;-57
2022/02/11 13:46:26;;;;;;;6.93;2.53;;;7.70;99.90;;;;;;5057991;28;20436;-57
2022/02/11 13:48:54;;;;;;;7.15;2.40;;;7.80;99.90;;;;;;5039910;28;20446;-57
2022/02/11 13:51:20;;;;;;;6.30;2.38;;;7.70;99.90;;;;;;5056388;28;20404;-59
2022/02/11 13:53:49;;;;;;;9.10;2.80;;;7.30;99.90;;;;;;5056297;28;20401;-59
2022/02/11 13:56:22;;;;;;;8.17;2.40;;;7.20;99.90;;;;;;5058460;28;20455;-59
2022/02/11 13:59:11;;;;;;;5.78;2.00;;;7.40;99.90;;;;;;5059584;28;20900;-60
2022/02/11 14:01:45;;;;;;;6.57;2.40;;;7.40;99.90;;;;;;5055215;28;20981;-57
2022/02/11 14:04:17;;;;;;;7.68;2.25;;;7.50;99.90;;;;;;5058108;28;20459;-59
2022/02/11 14:06:52;;;;;;;6.40;1.98;;;7.30;99.90;;;;;;5057309;28;20393;-59
2022/02/11 14:09:29;;;;;;;6.43;2.40;;;7.20;99.90;;;;;;5054500;28;20451;-59
2022/02/11 14:11:55;;;;;;;7.78;2.20;;;7.30;99.90;;;;;;5065553;28;20391;-58
2022/02/11 14:14:23;;;;;;;6.30;2.15;;;7.20;99.90;;;;;;5057317;28;20407;-58
2022/02/11 14:16:48;;;;;;;10.57;2.83;;;7.20;99.90;;;;;;5056166;28;20406;-58
2022/02/11 14:19:25;;;;;;;8.43;2.77;;;7.10;99.90;;;;;;5056706;28;20428;-58
2022/02/11 14:21:51;;;;;;;6.82;2.63;;;7.30;99.90;;;;;;5037754;28;20393;-58
2022/02/11 14:24:20;;;;;;;6.43;2.10;;;7.20;99.90;;;;;;5051979;28;20385;-58
2022/02/11 14:26:45;;;;;;;5.90;1.90;;;6.90;99.90;;;;;;5050922;28;20402;-59
2022/02/11 14:29:11;;;;;;;6.37;2.30;;;6.70;99.90;;;;;;5034428;28;20404;-59
2022/02/11 14:31:41;;;;;;;7.63;2.40;;;8.20;99.90;;;;;;5058273;28;20389;-59
2022/02/11 14:34:07;;;;;;;7.70;2.20;;;6.50;99.90;;;;;;5057083;28;20489;-58
2022/02/11 14:36:33;;;;;;;8.57;2.50;;;6.50;99.90;;;;;;5053048;28;20391;-58
2022/02/11 14:38:59;;;;;;;7.03;2.30;;;6.50;99.90;;;;;;5035030;28;20882;-59
2022/02/11 14:44:09;;;;;;;5.35;1.80;;;6.60;99.90;;;;;;5066316;28;20425;-58
2022/02/11 14:46:35;;;;;;;7.60;2.50;;;6.40;99.90;;;;;;5067735;28;20379;-58
2022/02/11 14:49:01;;;;;;;7.20;2.10;;;6.40;99.90;;;;;;5066999;28;20900;-58
2022/02/11 14:51:27;;;;;;;7.65;2.28;;;7.70;99.90;;;;;;5067922;28;20414;-58
2022/02/11 14:53:53;;;;;;;5.97;1.60;;;6.60;99.90;;;;;;5067236;28;20768;-58
2022/02/11 14:56:18;;;;;;;7.35;2.08;;;6.50;99.90;;;;;;5067906;28;20402;-59
2022/02/11 14:58:44;;;;;;;7.23;2.20;;;6.40;99.90;;;;;;5067226;28;20463;-60
2022/02/11 15:01:11;;;;;;;7.30;2.50;;;6.30;99.90;;;;;;5067017;28;20724;-58
2022/02/11 15:03:37;;;;;;;10.07;2.42;;;6.20;99.90;;;;;;5067563;28;20514;-59
2022/02/11 15:06:02;;;;;;;7.00;2.30;;;7.20;99.90;;;;;;5048840;28;20434;-59
2022/02/11 15:08:28;;;;;;;8.27;2.55;;;6.40;99.90;;;;;;5067502;28;20415;-58
2022/02/11 15:10:54;;;;;;;8.10;2.83;;;6.40;99.90;;;;;;5066804;28;21305;-59
2022/02/11 15:13:19;;;;;;;8.32;2.60;;;6.40;99.90;;;;;;5067372;28;20621;-58
2022/02/11 15:15:45;;;;;;;8.20;2.60;;;6.50;99.90;;;;;;5066516;28;20383;-59
2022/02/11 15:18:11;;;;;;;8.80;2.70;;;6.50;99.90;;;;;;5067097;28;20967;-59
2022/02/11 15:20:42;;;;;;;10.02;2.88;;;6.50;99.90;;;;;;5067051;28;20411;-59
2022/02/11 15:23:08;;;;;;;7.72;2.50;;;6.40;99.90;;;;;;5065746;28;20403;-59
2022/02/11 15:25:34;;;;;;;10.67;2.70;;;6.20;99.90;;;;;;5067415;28;20437;-59
2022/02/11 15:28:00;;;;;;;7.20;2.70;;;6.30;99.90;;;;;;5065538;28;20482;-58
2022/02/11 15:30:26;;;;;;;8.50;2.97;;;6.30;99.90;;;;;;5066828;28;20410;-58
2022/02/11 15:32:52;;;;;;;9.82;2.88;;;6.40;99.90;;;;;;5065487;28;20387;-58
2022/02/11 15:35:17;;;;;;;8.90;3.20;;;6.20;99.90;;;;;;5070784;28;20375;-58
2022/02/11 15:37:43;;;;;;;7.47;2.97;;;6.20;99.90;;;;;;5070559;28;20495;-60
2022/02/11 15:40:09;;;;;;;7.50;2.43;;;6.10;99.90;;;;;;5067236;28;20877;-58
2022/02/11 15:42:35;;;;;;;11.33;3.50;;;6.10;99.90;;;;;;5066882;28;20474;-58
2022/02/11 15:45:02;;;;;;;7.40;3.10;;;6.20;99.90;;;;;;5070576;28;20620;-58
2022/02/11 15:47:28;;;;;;;9.25;3.20;;;6.10;99.90;;;;;;5053077;28;20396;-59
2022/02/11 15:49:55;;;;;;;8.48;2.88;;;6.20;99.90;;;;;;5050856;28;20417;-58
2022/02/11 15:52:21;;;;;;;8.18;3.30;;;6.20;99.90;;;;;;5064997;28;20386;-58
2022/02/11 15:54:47;;;;;;;9.20;3.28;;;6.20;99.90;;;;;;5066870;28;20404;-58
2022/02/11 15:57:13;;;;;;;9.33;3.10;;;6.20;99.90;;;;;;5069024;28;20417;-58
2022/02/11 15:59:38;;;;;;;9.15;3.22;;;6.20;99.90;;;;;;5070729;28;20403;-58
2022/02/11 16:02:05;;;;;;;9.30;3.25;;;7.80;99.90;;;;;;5069449;28;20407;-58
2022/02/11 16:04:34;;;;;;;10.65;3.00;;;6.20;99.90;;;;;;5069951;28;20387;-59
2022/02/11 16:07:00;;;;;;;10.63;3.13;;;5.90;99.90;;;;;;5068249;28;20434;-56
2022/02/11 16:09:27;;;;;;;7.22;2.90;;;6.10;99.90;;;;;;5069938;28;20396;-59
2022/02/11 16:11:52;;;;;;;8.75;3.13;;;6.10;99.90;;;;;;5067847;28;20383;-56
2022/02/11 16:14:18;;;;;;;10.43;3.30;;;6.20;99.90;;;;;;5053735;28;20478;-58
2022/02/11 16:16:44;;;;;;;10.20;3.72;;;6.00;99.90;;;;;;5069494;28;20868;-60
2022/02/11 16:19:10;;;;;;;10.13;3.92;;;6.10;99.90;;;;;;5069284;28;20411;-58
2022/02/11 16:21:36;;;;;;;9.90;3.93;;;6.10;99.90;;;;;;5069269;28;20947;-58
2022/02/11 16:24:02;;;;;;;9.90;4.93;;;6.10;99.90;;;;;;5069019;28;20395;-58
2022/02/11 16:26:27;;;;;;;11.82;5.70;;;5.60;99.90;;;;;;5069099;28;21150;-58
2022/02/11 16:28:53;;;;;;;14.20;6.40;;;5.50;99.90;;;;;;5069304;28;20790;-57
2022/02/11 16:31:21;;;;;;;14.37;6.13;;;5.30;99.90;;;;;;5070799;28;20403;-59
2022/02/11 16:33:48;;;;;;;9.60;4.80;;;5.20;99.90;;;;;;5066205;28;20399;-58
2022/02/11 16:36:14;;;;;;;8.40;3.60;;;5.00;99.90;;;;;;5069994;28;20477;-57
2022/02/11 16:38:42;;;;;;;8.00;3.60;;;4.90;99.90;;;;;;5069903;28;20458;-58
2022/02/11 16:41:08;;;;;;;10.98;3.90;;;5.00;99.90;;;;;;5069009;28;20942;-57
2022/02/11 16:43:34;;;;;;;11.52;4.07;;;5.10;99.90;;;;;;5069750;28;20387;-58
2022/02/11 16:45:59;;;;;;;10.93;4.90;;;5.20;99.90;;;;;;5068274;28;20749;-58
2022/02/11 16:48:25;;;;;;;12.45;4.68;;;5.20;99.90;;;;;;5067681;28;20877;-57
2022/02/11 16:50:51;;;;;;;9.30;4.07;;;5.30;99.90;;;;;;5066062;28;20415;-57
2022/02/11 16:53:17;;;;;;;9.10;3.70;;;5.30;99.90;;;;;;5064471;28;20396;-58
2022/02/11 16:55:42;;;;;;;9.82;3.90;;;5.20;99.90;;;;;;5066899;28;20441;-60
2022/02/11 16:58:08;;;;;;;6.80;2.90;;;5.30;99.90;;;;;;5068511;28;20433;-59
2022/02/11 17:00:34;;;;;;;9.47;3.90;;;5.20;99.90;;;;;;5069492;28;20419;-58